createdAt,value
2019-04-29T00:00:16.014Z,1014.64
2019-04-29T00:01:16.002Z,1014.61
2019-04-29T00:02:15.993Z,1014.60
2019-04-29T00:03:15.980Z,1014.67
2019-04-29T00:04:15.970Z,1014.63
2019-04-29T00:05:15.962Z,1014.59
2019-04-29T00:06:15.962Z,1014.58
2019-04-29T00:07:15.938Z,1014.60
2019-04-29T00:08:15.926Z,1014.62
2019-04-29T00:09:15.915Z,1014.64
2019-04-29T00:10:15.903Z,1014.58
2019-04-29T00:11:15.893Z,1014.61
2019-04-29T00:12:15.881Z,1014.64
2019-04-29T00:13:15.871Z,1014.63
2019-04-29T00:14:15.860Z,1014.60
2019-04-29T00:15:15.853Z,1014.58
2019-04-29T00:16:15.836Z,1014.63
2019-04-29T00:17:15.824Z,1014.59
2019-04-29T00:18:15.816Z,1014.57
2019-04-29T00:19:15.811Z,1014.56
2019-04-29T00:20:15.793Z,1014.63
2019-04-29T00:21:15.785Z,1014.57
2019-04-29T00:22:15.773Z,1014.57
2019-04-29T00:23:15.761Z,1014.61
2019-04-29T00:24:15.749Z,1014.61
2019-04-29T00:25:15.740Z,1014.58
2019-04-29T00:26:15.727Z,1014.60
2019-04-29T00:27:15.716Z,1014.61
2019-04-29T00:28:15.706Z,1014.56
2019-04-29T00:29:15.701Z,1014.59
2019-04-29T00:30:15.686Z,1014.56
2019-04-29T00:31:15.674Z,1014.59
2019-04-29T00:32:15.663Z,1014.56
2019-04-29T00:33:15.649Z,1014.55
2019-04-29T00:34:15.640Z,1014.55
2019-04-29T00:35:15.637Z,1014.52
2019-04-29T00:36:15.618Z,1014.52
2019-04-29T00:37:15.606Z,1014.55
2019-04-29T00:38:15.596Z,1014.53
2019-04-29T00:39:15.590Z,1014.53
2019-04-29T00:40:15.589Z,1014.57
2019-04-29T00:41:15.562Z,1014.56
2019-04-29T00:42:15.551Z,1014.53
2019-04-29T00:43:15.541Z,1014.60
2019-04-29T00:44:15.530Z,1014.58
2019-04-29T00:45:15.519Z,1014.53
2019-04-29T00:46:15.509Z,1014.54
2019-04-29T00:47:15.499Z,1014.54
2019-04-29T00:48:15.486Z,1014.56
2019-04-29T00:49:15.481Z,1014.54
2019-04-29T00:50:15.469Z,1014.54
2019-04-29T00:51:15.453Z,1014.50
2019-04-29T00:52:15.444Z,1014.54
2019-04-29T00:53:15.431Z,1014.54
2019-04-29T00:54:15.420Z,1014.51
2019-04-29T00:55:15.409Z,1014.52
2019-04-29T00:56:15.399Z,1014.49
2019-04-29T00:57:15.387Z,1014.55
2019-04-29T00:58:15.380Z,1014.51
2019-04-29T00:59:15.364Z,1014.50
2019-04-29T01:00:15.355Z,1014.51
2019-04-29T01:01:15.346Z,1014.54
2019-04-29T01:02:15.357Z,1014.55
2019-04-29T01:03:15.326Z,1014.49
2019-04-29T01:04:15.310Z,1014.56
2019-04-29T01:05:15.309Z,1014.53
2019-04-29T01:06:15.291Z,1014.56
2019-04-29T01:07:15.276Z,1014.56
2019-04-29T01:08:15.269Z,1014.56
2019-04-29T01:09:15.255Z,1014.56
2019-04-29T01:10:15.246Z,1014.52
2019-04-29T01:11:15.234Z,1014.55
2019-04-29T01:12:15.225Z,1014.58
2019-04-29T01:13:15.211Z,1014.54
2019-04-29T01:14:15.201Z,1014.55
2019-04-29T01:15:15.190Z,1014.58
2019-04-29T01:16:15.178Z,1014.55
2019-04-29T01:17:15.169Z,1014.56
2019-04-29T01:18:15.155Z,1014.55
2019-04-29T01:19:15.144Z,1014.53
2019-04-29T01:20:15.135Z,1014.55
2019-04-29T01:21:15.127Z,1014.54
2019-04-29T01:22:15.113Z,1014.52
2019-04-29T01:23:15.102Z,1014.51
2019-04-29T01:24:15.092Z,1014.51
2019-04-29T01:25:15.080Z,1014.51
2019-04-29T01:26:15.073Z,1014.48
2019-04-29T01:27:15.059Z,1014.45
2019-04-29T01:28:15.062Z,1014.46
2019-04-29T01:29:15.036Z,1014.45
2019-04-29T01:30:15.025Z,1014.42
2019-04-29T01:31:15.016Z,1014.48
2019-04-29T01:32:15.005Z,1014.45
2019-04-29T01:33:14.993Z,1014.41
2019-04-29T01:34:14.983Z,1014.39
2019-04-29T01:35:14.973Z,1014.41
2019-04-29T01:36:14.962Z,1014.42
2019-04-29T01:37:14.952Z,1014.37
2019-04-29T01:38:14.940Z,1014.38
2019-04-29T01:39:14.927Z,1014.35
2019-04-29T01:40:14.917Z,1014.36
2019-04-29T01:41:14.906Z,1014.34
2019-04-29T01:42:14.896Z,1014.31
2019-04-29T01:43:14.882Z,1014.31
2019-04-29T01:44:14.871Z,1014.32
2019-04-29T01:45:14.867Z,1014.32
2019-04-29T01:46:14.850Z,1014.27
2019-04-29T01:47:14.840Z,1014.28
2019-04-29T01:48:14.826Z,1014.26
2019-04-29T01:49:14.819Z,1014.26
2019-04-29T01:50:14.806Z,1014.23
2019-04-29T01:51:14.802Z,1014.24
2019-04-29T01:52:14.784Z,1014.23
2019-04-29T01:53:14.773Z,1014.21
2019-04-29T01:54:14.763Z,1014.17
2019-04-29T01:55:14.751Z,1014.22
2019-04-29T01:56:14.741Z,1014.21
2019-04-29T01:57:14.727Z,1014.22
2019-04-29T01:58:14.718Z,1014.19
2019-04-29T01:59:14.707Z,1014.19
2019-04-29T02:00:14.695Z,1014.21
2019-04-29T02:01:14.683Z,1014.19
2019-04-29T02:02:14.675Z,1014.19
2019-04-29T02:03:14.661Z,1014.20
2019-04-29T02:04:14.664Z,1014.16
2019-04-29T02:05:14.643Z,1014.19
2019-04-29T02:06:14.629Z,1014.18
2019-04-29T02:07:14.619Z,1014.11
2019-04-29T02:08:14.610Z,1014.16
2019-04-29T02:09:14.596Z,1014.19
2019-04-29T02:10:14.591Z,1014.15
2019-04-29T02:11:14.578Z,1014.12
2019-04-29T02:12:14.562Z,1014.14
2019-04-29T02:13:14.555Z,1014.09
2019-04-29T02:14:14.543Z,1014.09
2019-04-29T02:15:14.529Z,1014.05
2019-04-29T02:16:14.519Z,1014.06
2019-04-29T02:17:14.509Z,1014.01
2019-04-29T02:18:14.501Z,1014.03
2019-04-29T02:19:14.487Z,1014.01
2019-04-29T02:20:14.484Z,1014.03
2019-04-29T02:21:14.465Z,1014.05
2019-04-29T02:22:14.454Z,1014.02
2019-04-29T02:23:14.506Z,1014.02
2019-04-29T02:24:14.434Z,1014.01
2019-04-29T02:25:14.426Z,1013.97
2019-04-29T02:26:14.409Z,1013.98
2019-04-29T02:27:14.417Z,1013.96
2019-04-29T02:28:14.391Z,1013.93
2019-04-29T02:29:14.383Z,1013.91
2019-04-29T02:30:14.366Z,1013.90
2019-04-29T02:31:14.355Z,1013.94
2019-04-29T02:32:14.351Z,1013.94
2019-04-29T02:33:14.334Z,1013.91
2019-04-29T02:34:14.325Z,1013.89
2019-04-29T02:35:14.317Z,1013.87
2019-04-29T02:36:14.305Z,1013.87
2019-04-29T02:37:14.290Z,1013.89
2019-04-29T02:38:14.278Z,1013.86
2019-04-29T02:39:14.270Z,1013.89
2019-04-29T02:40:14.258Z,1013.87
2019-04-29T02:41:14.246Z,1013.87
2019-04-29T02:42:14.246Z,1013.88
2019-04-29T02:43:14.223Z,1013.87
2019-04-29T02:44:14.212Z,1013.82
2019-04-29T02:45:14.201Z,1013.83
2019-04-29T02:46:14.192Z,1013.81
2019-04-29T02:47:14.184Z,1013.81
2019-04-29T02:48:14.172Z,1013.79
2019-04-29T02:49:14.159Z,1013.77
2019-04-29T02:50:14.172Z,1013.76
2019-04-29T02:51:14.140Z,1013.74
2019-04-29T02:52:14.137Z,1013.69
2019-04-29T02:53:14.111Z,1013.71
2019-04-29T02:54:14.104Z,1013.70
2019-04-29T02:55:14.093Z,1013.69
2019-04-29T02:56:14.083Z,1013.67
2019-04-29T02:57:14.075Z,1013.68
2019-04-29T02:58:14.058Z,1013.67
2019-04-29T02:59:14.053Z,1013.65
2019-04-29T03:00:14.059Z,1013.68
2019-04-29T03:01:14.025Z,1013.66
2019-04-29T03:02:14.017Z,1013.68
2019-04-29T03:03:14.003Z,1013.63
2019-04-29T03:04:13.996Z,1013.62
2019-04-29T03:05:13.985Z,1013.63
2019-04-29T03:06:13.971Z,1013.61
2019-04-29T03:07:13.961Z,1013.56
2019-04-29T03:08:13.947Z,1013.59
2019-04-29T03:09:13.937Z,1013.53
2019-04-29T03:10:13.928Z,1013.52
2019-04-29T03:11:13.924Z,1013.54
2019-04-29T03:12:13.908Z,1013.55
2019-04-29T03:13:13.903Z,1013.55
2019-04-29T03:14:13.881Z,1013.52
2019-04-29T03:15:13.871Z,1013.51
2019-04-29T03:16:13.858Z,1013.54
2019-04-29T03:17:18.340Z,1013.49
2019-04-29T03:18:14.840Z,1013.47
2019-04-29T03:19:13.829Z,1013.48
2019-04-29T03:20:13.817Z,1013.49
2019-04-29T03:21:13.807Z,1013.44
2019-04-29T03:22:13.793Z,1013.43
2019-04-29T03:23:13.782Z,1013.42
2019-04-29T03:24:13.771Z,1013.41
2019-04-29T03:25:13.762Z,1013.37
2019-04-29T03:26:13.750Z,1013.36
2019-04-29T03:27:13.741Z,1013.37
2019-04-29T03:28:13.735Z,1013.36
2019-04-29T03:29:13.722Z,1013.34
2019-04-29T03:30:13.714Z,1013.30
2019-04-29T03:31:13.704Z,1013.28
2019-04-29T03:32:13.686Z,1013.29
2019-04-29T03:33:13.682Z,1013.26
2019-04-29T03:34:13.671Z,1013.27
2019-04-29T03:35:13.653Z,1013.29
2019-04-29T03:36:13.655Z,1013.26
2019-04-29T03:37:13.628Z,1013.26
2019-04-29T03:38:13.620Z,1013.23
2019-04-29T03:39:13.608Z,1013.22
2019-04-29T03:40:13.601Z,1013.27
2019-04-29T03:41:13.687Z,1013.25
2019-04-29T03:42:13.576Z,1013.23
2019-04-29T03:43:13.608Z,1013.25
2019-04-29T03:44:13.557Z,1013.20
2019-04-29T03:45:13.541Z,1013.22
2019-04-29T03:46:13.536Z,1013.20
2019-04-29T03:47:13.532Z,1013.19
2019-04-29T03:48:13.512Z,1013.19
2019-04-29T03:49:13.512Z,1013.16
2019-04-29T03:50:13.487Z,1013.18
2019-04-29T03:51:13.476Z,1013.17
2019-04-29T03:52:13.467Z,1013.17
2019-04-29T03:53:13.455Z,1013.10
2019-04-29T03:54:13.444Z,1013.13
2019-04-29T03:55:13.432Z,1013.14
2019-04-29T03:56:13.421Z,1013.13
2019-04-29T03:57:13.410Z,1013.06
2019-04-29T03:58:13.401Z,1013.04
2019-04-29T03:59:13.414Z,1013.08
2019-04-29T04:00:13.381Z,1013.09
2019-04-29T04:01:13.366Z,1013.05
2019-04-29T04:02:13.358Z,1012.98
2019-04-29T04:03:13.344Z,1013.13
2019-04-29T04:04:13.333Z,1013.01
2019-04-29T04:05:13.324Z,1013.08
2019-04-29T04:06:13.322Z,1013.07
2019-04-29T04:07:13.301Z,1013.08
2019-04-29T04:08:13.289Z,1013.05
2019-04-29T04:09:13.280Z,1013.08
2019-04-29T04:10:13.268Z,1013.11
2019-04-29T04:11:13.258Z,1013.08
2019-04-29T04:12:13.244Z,1013.12
2019-04-29T04:13:13.234Z,1013.17
2019-04-29T04:14:13.221Z,1013.12
2019-04-29T04:15:13.231Z,1013.14
2019-04-29T04:16:13.206Z,1013.15
2019-04-29T04:17:13.190Z,1013.09
2019-04-29T04:18:13.179Z,1013.08
2019-04-29T04:19:13.173Z,1013.10
2019-04-29T04:20:13.157Z,1013.15
2019-04-29T04:21:13.148Z,1013.15
2019-04-29T04:22:13.150Z,1013.10
2019-04-29T04:23:13.126Z,1013.13
2019-04-29T04:24:13.116Z,1013.09
2019-04-29T04:25:13.102Z,1013.11
2019-04-29T04:26:13.099Z,1013.11
2019-04-29T04:27:13.082Z,1013.04
2019-04-29T04:28:13.068Z,1012.95
2019-04-29T04:29:13.062Z,1013.02
2019-04-29T04:30:13.050Z,1013.02
2019-04-29T04:31:13.039Z,1012.94
2019-04-29T04:32:13.032Z,1012.93
2019-04-29T04:33:13.017Z,1012.92
2019-04-29T04:34:13.004Z,1012.96
2019-04-29T04:35:13.047Z,1012.99
2019-04-29T04:36:12.982Z,1012.91
2019-04-29T04:37:12.972Z,1012.93
2019-04-29T04:38:12.961Z,1012.93
2019-04-29T04:39:12.949Z,1012.91
2019-04-29T04:40:12.938Z,1012.92
2019-04-29T04:41:12.930Z,1012.91
2019-04-29T04:42:12.917Z,1012.95
2019-04-29T04:43:12.906Z,1012.96
2019-04-29T04:44:12.897Z,1012.95
2019-04-29T04:45:12.883Z,1012.93
2019-04-29T04:46:12.871Z,1012.93
2019-04-29T04:47:12.860Z,1012.93
2019-04-29T04:48:12.850Z,1012.98
2019-04-29T04:49:15.747Z,1012.98
2019-04-29T04:50:12.834Z,1012.98
2019-04-29T04:51:12.820Z,1012.99
2019-04-29T04:52:12.807Z,1012.97
2019-04-29T04:53:12.795Z,1012.95
2019-04-29T04:54:12.784Z,1012.90
2019-04-29T04:55:12.775Z,1012.96
2019-04-29T04:56:12.761Z,1012.90
2019-04-29T04:57:12.750Z,1012.85
2019-04-29T04:58:12.752Z,1012.91
2019-04-29T04:59:12.732Z,1012.92
2019-04-29T05:00:12.717Z,1012.90
2019-04-29T05:01:12.710Z,1012.95
2019-04-29T05:02:12.696Z,1012.93
2019-04-29T05:03:12.684Z,1012.97
2019-04-29T05:04:12.673Z,1012.90
2019-04-29T05:05:12.662Z,1012.91
2019-04-29T05:06:12.659Z,1012.89
2019-04-29T05:07:12.640Z,1012.84
2019-04-29T05:08:12.650Z,1012.86
2019-04-29T05:09:12.619Z,1012.82
2019-04-29T05:10:12.608Z,1012.80
2019-04-29T05:11:12.597Z,1012.83
2019-04-29T05:12:14.233Z,1012.79
2019-04-29T05:13:12.575Z,1012.78
2019-04-29T05:14:12.563Z,1012.81
2019-04-29T05:15:12.557Z,1012.80
2019-04-29T05:16:12.543Z,1012.79
2019-04-29T05:17:12.530Z,1012.83
2019-04-29T05:18:12.521Z,1012.82
2019-04-29T05:19:12.513Z,1012.84
2019-04-29T05:20:12.500Z,1012.88
2019-04-29T05:21:12.491Z,1012.85
2019-04-29T05:22:12.476Z,1012.87
2019-04-29T05:23:12.474Z,1012.80
2019-04-29T05:24:12.457Z,1012.82
2019-04-29T05:25:12.450Z,1012.80
2019-04-29T05:26:12.433Z,1012.86
2019-04-29T05:27:12.421Z,1012.88
2019-04-29T05:28:12.414Z,1012.86
2019-04-29T05:29:12.401Z,1012.83
2019-04-29T05:30:12.394Z,1012.83
2019-04-29T05:31:12.377Z,1012.80
2019-04-29T05:32:12.365Z,1012.79
2019-04-29T05:33:12.356Z,1012.78
2019-04-29T05:34:12.345Z,1012.76
2019-04-29T05:35:12.334Z,1012.80
2019-04-29T05:36:12.324Z,1012.81
2019-04-29T05:37:12.311Z,1012.77
2019-04-29T05:38:12.302Z,1012.74
2019-04-29T05:39:12.290Z,1012.78
2019-04-29T05:40:12.283Z,1012.77
2019-04-29T05:41:12.268Z,1012.75
2019-04-29T05:42:16.283Z,1012.81
2019-04-29T05:43:13.245Z,1012.79
2019-04-29T05:44:12.237Z,1012.80
2019-04-29T05:45:12.225Z,1012.82
2019-04-29T05:46:12.215Z,1012.82
2019-04-29T05:47:12.221Z,1012.83
2019-04-29T05:48:12.190Z,1012.86
2019-04-29T05:49:12.181Z,1012.81
2019-04-29T05:50:16.948Z,1012.83
2019-04-29T05:51:13.157Z,1012.81
2019-04-29T05:52:12.148Z,1012.82
2019-04-29T05:53:16.403Z,1012.82
2019-04-29T05:54:13.124Z,1012.88
2019-04-29T05:55:13.747Z,1012.84
2019-04-29T05:56:12.102Z,1012.83
2019-04-29T05:57:12.093Z,1012.82
2019-04-29T05:58:12.084Z,1012.87
2019-04-29T05:59:12.920Z,1012.88
2019-04-29T06:00:12.060Z,1012.84
2019-04-29T06:01:12.054Z,1012.90
2019-04-29T06:02:12.042Z,1012.92
2019-04-29T06:03:12.026Z,1012.86
2019-04-29T06:04:16.202Z,1012.91
2019-04-29T06:05:13.006Z,1012.92
2019-04-29T06:06:12.473Z,1012.92
2019-04-29T06:07:11.985Z,1012.91
2019-04-29T06:08:11.972Z,1012.93
2019-04-29T06:09:16.794Z,1012.91
2019-04-29T06:10:12.948Z,1012.94
2019-04-29T06:11:11.945Z,1012.89
2019-04-29T06:12:11.929Z,1012.89
2019-04-29T06:13:11.919Z,1012.91
2019-04-29T06:14:11.954Z,1012.86
2019-04-29T06:15:11.895Z,1012.93
2019-04-29T06:16:16.105Z,1012.83
2019-04-29T06:17:12.872Z,1012.85
2019-04-29T06:18:11.872Z,1012.76
2019-04-29T06:19:11.859Z,1012.74
2019-04-29T06:20:13.071Z,1012.69
2019-04-29T06:21:12.830Z,1012.60
2019-04-29T06:22:11.823Z,1012.60
2019-04-29T06:23:11.809Z,1012.56
2019-04-29T06:24:11.806Z,1012.61
2019-04-29T06:25:11.790Z,1012.65
2019-04-29T06:26:11.784Z,1012.63
2019-04-29T06:27:11.769Z,1012.62
2019-04-29T06:28:11.764Z,1012.61
2019-04-29T06:29:11.748Z,1012.63
2019-04-29T06:30:11.745Z,1012.64
2019-04-29T06:31:11.726Z,1012.63
2019-04-29T06:32:11.783Z,1012.66
2019-04-29T06:33:11.708Z,1012.66
2019-04-29T06:34:11.691Z,1012.66
2019-04-29T06:35:14.239Z,1012.67
2019-04-29T06:36:11.672Z,1012.64
2019-04-29T06:37:11.659Z,1012.67
2019-04-29T06:38:11.651Z,1012.63
2019-04-29T06:39:11.645Z,1012.67
2019-04-29T06:40:11.627Z,1012.64
2019-04-29T06:41:11.619Z,1012.68
2019-04-29T06:42:15.439Z,1012.64
2019-04-29T06:43:12.596Z,1012.65
2019-04-29T06:44:16.148Z,1012.68
2019-04-29T06:45:12.579Z,1012.62
2019-04-29T06:46:11.580Z,1012.60
2019-04-29T06:47:11.554Z,1012.63
2019-04-29T06:48:11.545Z,1012.59
2019-04-29T06:49:11.531Z,1012.56
2019-04-29T06:50:11.523Z,1012.54
2019-04-29T06:51:11.510Z,1012.57
2019-04-29T06:52:11.501Z,1012.58
2019-04-29T06:53:11.494Z,1012.59
2019-04-29T06:54:11.479Z,1012.60
2019-04-29T06:55:11.468Z,1012.61
2019-04-29T06:56:11.457Z,1012.60
2019-04-29T06:57:11.448Z,1012.66
2019-04-29T06:58:11.436Z,1012.68
2019-04-29T06:59:11.976Z,1012.61
2019-04-29T07:00:11.415Z,1012.60
2019-04-29T07:01:11.404Z,1012.62
2019-04-29T07:02:14.447Z,1012.58
2019-04-29T07:03:11.434Z,1012.56
2019-04-29T07:04:11.369Z,1012.57
2019-04-29T07:05:11.358Z,1012.60
2019-04-29T07:06:11.347Z,1012.61
2019-04-29T07:07:11.336Z,1012.62
2019-04-29T07:08:11.327Z,1012.61
2019-04-29T07:09:11.319Z,1012.66
2019-04-29T07:10:11.312Z,1012.68
2019-04-29T07:11:11.340Z,1012.62
2019-04-29T07:12:12.656Z,1012.67
2019-04-29T07:13:11.271Z,1012.65
2019-04-29T07:14:11.266Z,1012.66
2019-04-29T07:15:12.309Z,1012.65
2019-04-29T07:16:11.242Z,1012.64
2019-04-29T07:17:11.229Z,1012.63
2019-04-29T07:18:11.215Z,1012.69
2019-04-29T07:19:11.205Z,1012.71
2019-04-29T07:20:11.195Z,1012.69
2019-04-29T07:21:11.874Z,1012.65
2019-04-29T07:22:11.177Z,1012.62
2019-04-29T07:23:11.167Z,1012.59
2019-04-29T07:24:11.152Z,1012.58
2019-04-29T07:25:11.140Z,1012.58
2019-04-29T07:26:11.133Z,1012.53
2019-04-29T07:27:11.119Z,1012.59
2019-04-29T07:28:13.747Z,1012.56
2019-04-29T07:29:12.095Z,1012.55
2019-04-29T07:30:11.085Z,1012.53
2019-04-29T07:31:11.073Z,1012.54
2019-04-29T07:32:11.079Z,1012.51
2019-04-29T07:33:11.051Z,1012.46
2019-04-29T07:34:11.043Z,1012.46
2019-04-29T07:35:11.562Z,1012.51
2019-04-29T07:36:11.600Z,1012.48
2019-04-29T07:37:11.578Z,1012.50
2019-04-29T07:38:11.006Z,1012.55
2019-04-29T07:39:10.991Z,1012.51
2019-04-29T07:40:10.974Z,1012.52
2019-04-29T07:41:14.294Z,1012.49
2019-04-29T07:42:11.960Z,1012.51
2019-04-29T07:43:10.944Z,1012.47
2019-04-29T07:44:13.651Z,1012.42
2019-04-29T07:45:11.924Z,1012.45
2019-04-29T07:46:10.912Z,1012.39
2019-04-29T07:47:10.904Z,1012.40
2019-04-29T07:48:10.900Z,1012.40
2019-04-29T07:49:12.889Z,1012.41
2019-04-29T07:50:11.980Z,1012.41
2019-04-29T07:51:10.858Z,1012.42
2019-04-29T07:52:14.551Z,1012.43
2019-04-29T07:53:11.834Z,1012.42
2019-04-29T07:54:15.581Z,1012.47
2019-04-29T07:55:11.815Z,1012.47
2019-04-29T07:56:10.806Z,1012.44
2019-04-29T07:57:12.437Z,1012.49
2019-04-29T07:58:11.783Z,1012.51
2019-04-29T07:59:11.353Z,1012.48
2019-04-29T08:00:12.982Z,1012.45
2019-04-29T08:01:10.758Z,1012.46
2019-04-29T08:02:10.807Z,1012.38
2019-04-29T08:03:10.743Z,1012.39
2019-04-29T08:04:10.721Z,1012.33
2019-04-29T08:05:10.711Z,1012.32
2019-04-29T08:06:10.701Z,1012.30
2019-04-29T08:07:10.698Z,1012.30
2019-04-29T08:08:10.678Z,1012.34
2019-04-29T08:09:10.667Z,1012.33
2019-04-29T08:10:23.363Z,1012.35
2019-04-29T08:11:11.645Z,1012.28
2019-04-29T08:12:10.682Z,1012.29
2019-04-29T08:13:10.625Z,1012.29
2019-04-29T08:14:10.620Z,1012.34
2019-04-29T08:15:10.605Z,1012.30
2019-04-29T08:16:12.731Z,1012.26
2019-04-29T08:17:11.581Z,1012.22
2019-04-29T08:18:11.276Z,1012.20
2019-04-29T08:19:11.567Z,1012.23
2019-04-29T08:20:10.550Z,1012.25
2019-04-29T08:21:14.383Z,1012.22
2019-04-29T08:22:15.271Z,1012.24
2019-04-29T08:23:11.515Z,1012.22
2019-04-29T08:24:11.688Z,1012.25
2019-04-29T08:25:10.495Z,1012.24
2019-04-29T08:26:10.484Z,1012.24
2019-04-29T08:27:10.476Z,1012.23
2019-04-29T08:28:10.463Z,1012.25
2019-04-29T08:29:10.458Z,1012.24
2019-04-29T08:30:11.215Z,1012.23
2019-04-29T08:31:10.440Z,1012.26
2019-04-29T08:32:10.420Z,1012.27
2019-04-29T08:33:11.955Z,1012.29
2019-04-29T08:34:10.415Z,1012.33
2019-04-29T08:35:10.407Z,1012.31
2019-04-29T08:36:10.380Z,1012.31
2019-04-29T08:37:10.377Z,1012.29
2019-04-29T08:38:10.362Z,1012.28
2019-04-29T08:39:10.350Z,1012.23
2019-04-29T08:40:16.257Z,1012.25
2019-04-29T08:41:11.333Z,1012.26
2019-04-29T08:42:10.314Z,1012.29
2019-04-29T08:43:10.304Z,1012.28
2019-04-29T08:44:16.186Z,1012.28
2019-04-29T08:45:11.286Z,1012.22
2019-04-29T08:46:10.270Z,1012.19
2019-04-29T08:47:10.262Z,1012.22
2019-04-29T08:48:10.255Z,1012.22
2019-04-29T08:49:13.113Z,1012.22
2019-04-29T08:50:10.230Z,1012.20
2019-04-29T08:51:10.218Z,1012.23
2019-04-29T08:52:10.216Z,1012.22
2019-04-29T08:53:10.198Z,1012.23
2019-04-29T08:54:10.185Z,1012.17
2019-04-29T08:55:10.175Z,1012.22
2019-04-29T08:56:11.830Z,1012.21
2019-04-29T08:57:10.152Z,1012.22
2019-04-29T08:58:11.277Z,1012.30
2019-04-29T08:59:10.131Z,1012.28
2019-04-29T09:00:10.137Z,1012.23
2019-04-29T09:01:10.112Z,1012.25
2019-04-29T09:02:11.354Z,1012.23
2019-04-29T09:03:10.091Z,1012.26
2019-04-29T09:04:10.081Z,1012.26
2019-04-29T09:05:11.505Z,1012.22
2019-04-29T09:06:10.055Z,1012.27
2019-04-29T09:07:12.807Z,1012.19
2019-04-29T09:08:13.232Z,1012.21
2019-04-29T09:09:28.084Z,1012.23
2019-04-29T09:10:11.032Z,1012.28
2019-04-29T09:11:12.950Z,1012.23
2019-04-29T09:12:09.987Z,1012.24
2019-04-29T09:13:09.991Z,1012.22
2019-04-29T09:14:12.852Z,1012.22
2019-04-29T09:15:09.954Z,1012.22
2019-04-29T09:16:09.946Z,1012.21
2019-04-29T09:17:20.279Z,1012.20
2019-04-29T09:18:11.346Z,1012.26
2019-04-29T09:19:09.910Z,1012.23
2019-04-29T09:20:09.904Z,1012.19
2019-04-29T09:21:09.918Z,1012.19
2019-04-29T09:22:09.890Z,1012.18
2019-04-29T09:23:09.870Z,1012.16
2019-04-29T09:24:09.856Z,1012.16
2019-04-29T09:25:09.856Z,1012.20
2019-04-29T09:26:09.839Z,1012.15
2019-04-29T09:27:11.275Z,1012.20
2019-04-29T09:28:09.827Z,1012.20
2019-04-29T09:29:09.802Z,1012.19
2019-04-29T09:30:09.797Z,1012.19
2019-04-29T09:31:09.780Z,1012.18
2019-04-29T09:32:09.779Z,1012.22
2019-04-29T09:33:13.049Z,1012.18
2019-04-29T09:34:09.759Z,1012.15
2019-04-29T09:35:09.736Z,1012.19
2019-04-29T09:36:13.755Z,1012.16
2019-04-29T09:37:10.723Z,1012.18
2019-04-29T09:38:09.705Z,1012.15
2019-04-29T09:39:09.695Z,1012.13
2019-04-29T09:40:09.684Z,1012.11
2019-04-29T09:41:09.677Z,1012.16
2019-04-29T09:42:13.089Z,1012.17
2019-04-29T09:43:15.604Z,1012.16
2019-04-29T09:44:10.641Z,1012.16
2019-04-29T09:45:09.631Z,1012.18
2019-04-29T09:46:09.619Z,1012.20
2019-04-29T09:47:10.206Z,1012.15
2019-04-29T09:48:09.605Z,1012.22
2019-04-29T09:49:09.587Z,1012.19
2019-04-29T09:50:09.578Z,1012.20
2019-04-29T09:51:17.169Z,1012.19
2019-04-29T09:52:10.555Z,1012.18
2019-04-29T09:53:09.544Z,1012.25
2019-04-29T09:54:14.060Z,1012.24
2019-04-29T09:55:10.522Z,1012.23
2019-04-29T09:56:09.515Z,1012.26
2019-04-29T09:57:09.511Z,1012.24
2019-04-29T09:58:09.493Z,1012.24
2019-04-29T09:59:09.480Z,1012.24
2019-04-29T10:00:09.470Z,1012.27
2019-04-29T10:01:09.459Z,1012.24
2019-04-29T10:02:09.448Z,1012.17
2019-04-29T10:03:09.447Z,1012.25
2019-04-29T10:04:09.430Z,1012.22
2019-04-29T10:05:09.417Z,1012.22
2019-04-29T10:06:12.389Z,1012.18
2019-04-29T10:07:09.398Z,1012.20
2019-04-29T10:08:09.385Z,1012.11
2019-04-29T10:09:09.377Z,1012.19
2019-04-29T10:10:09.366Z,1012.21
2019-04-29T10:11:09.356Z,1012.21
2019-04-29T10:12:09.362Z,1012.18
2019-04-29T10:13:09.345Z,1012.17
2019-04-29T10:14:09.327Z,1012.19
2019-04-29T10:15:09.310Z,1012.18
2019-04-29T10:16:09.299Z,1012.21
2019-04-29T10:17:11.236Z,1012.20
2019-04-29T10:18:10.279Z,1012.20
2019-04-29T10:19:09.270Z,1012.22
2019-04-29T10:20:09.258Z,1012.18
2019-04-29T10:21:09.249Z,1012.16
2019-04-29T10:22:09.237Z,1012.20
2019-04-29T10:23:09.230Z,1012.14
2019-04-29T10:24:09.216Z,1012.17
2019-04-29T10:25:09.208Z,1012.20
2019-04-29T10:26:09.196Z,1012.14
2019-04-29T10:27:09.182Z,1012.14
2019-04-29T10:28:09.178Z,1012.19
2019-04-29T10:29:09.163Z,1012.19
2019-04-29T10:30:09.169Z,1012.20
2019-04-29T10:31:09.212Z,1012.17
2019-04-29T10:32:09.131Z,1012.16
2019-04-29T10:33:12.791Z,1012.13
2019-04-29T10:34:10.109Z,1012.13
2019-04-29T10:35:10.691Z,1012.15
2019-04-29T10:36:09.091Z,1012.10
2019-04-29T10:37:09.076Z,1012.10
2019-04-29T10:38:09.067Z,1012.12
2019-04-29T10:39:09.059Z,1012.13
2019-04-29T10:40:11.437Z,1012.11
2019-04-29T10:41:09.038Z,1012.14
2019-04-29T10:42:09.030Z,1012.12
2019-04-29T10:43:11.351Z,1012.14
2019-04-29T10:44:10.004Z,1012.13
2019-04-29T10:45:08.994Z,1012.08
2019-04-29T10:46:08.982Z,1012.10
2019-04-29T10:47:08.969Z,1012.07
2019-04-29T10:48:08.960Z,1012.12
2019-04-29T10:49:08.946Z,1012.12
2019-04-29T10:50:10.728Z,1012.14
2019-04-29T10:51:09.924Z,1012.14
2019-04-29T10:52:08.916Z,1012.15
2019-04-29T10:53:10.905Z,1012.12
2019-04-29T10:54:09.892Z,1012.15
2019-04-29T10:55:08.882Z,1012.10
2019-04-29T10:56:08.894Z,1012.14
2019-04-29T10:57:10.449Z,1012.16
2019-04-29T10:58:09.855Z,1012.13
2019-04-29T10:59:10.997Z,1012.15
2019-04-29T11:00:08.834Z,1012.15
2019-04-29T11:01:08.817Z,1012.20
2019-04-29T11:02:13.328Z,1012.18
2019-04-29T11:03:09.795Z,1012.19
2019-04-29T11:04:08.980Z,1012.21
2019-04-29T11:05:11.872Z,1012.20
2019-04-29T11:06:08.766Z,1012.22
2019-04-29T11:07:14.153Z,1012.22
2019-04-29T11:08:09.739Z,1012.24
2019-04-29T11:09:09.711Z,1012.21
2019-04-29T11:10:09.718Z,1012.22
2019-04-29T11:11:21.883Z,1012.18
2019-04-29T11:12:09.702Z,1012.19
2019-04-29T11:13:08.685Z,1012.18
2019-04-29T11:14:08.677Z,1012.21
2019-04-29T11:15:09.897Z,1012.20
2019-04-29T11:16:08.785Z,1012.20
2019-04-29T11:17:16.068Z,1012.20
2019-04-29T11:18:10.403Z,1012.19
2019-04-29T11:19:08.620Z,1012.19
2019-04-29T11:20:11.232Z,1012.19
2019-04-29T11:21:09.624Z,1012.20
2019-04-29T11:22:08.587Z,1012.19
2019-04-29T11:23:09.232Z,1012.17
2019-04-29T11:24:09.632Z,1012.18
2019-04-29T11:25:08.554Z,1012.19
2019-04-29T11:26:09.668Z,1012.23
2019-04-29T11:27:12.237Z,1012.16
2019-04-29T11:28:11.958Z,1012.22
2019-04-29T11:29:09.727Z,1012.16
2019-04-29T11:30:08.513Z,1012.18
2019-04-29T11:31:09.735Z,1012.14
2019-04-29T11:32:09.481Z,1012.10
2019-04-29T11:33:08.473Z,1012.11
2019-04-29T11:34:11.667Z,1012.13
2019-04-29T11:35:09.446Z,1012.07
2019-04-29T11:36:08.443Z,1012.06
2019-04-29T11:37:08.426Z,1012.05
2019-04-29T11:38:08.434Z,1012.05
2019-04-29T11:39:09.167Z,1012.09
2019-04-29T11:40:09.392Z,1012.10
2019-04-29T11:41:11.727Z,1012.08
2019-04-29T11:42:09.371Z,1012.05
2019-04-29T11:43:10.913Z,1012.04
2019-04-29T11:44:09.352Z,1012.04
2019-04-29T11:45:08.347Z,1012.00
2019-04-29T11:46:09.981Z,1012.02
2019-04-29T11:47:09.337Z,1012.06
2019-04-29T11:48:08.306Z,1012.05
2019-04-29T11:49:08.301Z,1012.01
2019-04-29T11:50:11.996Z,1011.98
2019-04-29T11:51:09.275Z,1012.00
2019-04-29T11:52:10.164Z,1011.99
2019-04-29T11:53:08.252Z,1011.97
2019-04-29T11:54:12.248Z,1011.93
2019-04-29T11:55:09.316Z,1012.01
2019-04-29T11:56:08.216Z,1011.95
2019-04-29T11:57:08.209Z,1011.99
2019-04-29T11:58:08.195Z,1011.97
2019-04-29T11:59:08.209Z,1011.95
2019-04-29T12:00:10.210Z,1012.00
2019-04-29T12:01:08.759Z,1011.98
2019-04-29T12:02:08.182Z,1011.96
2019-04-29T12:03:08.143Z,1011.95
2019-04-29T12:04:08.133Z,1011.98
2019-04-29T12:05:08.583Z,1011.97